createdAt,value
2023-02-04T00:00:37.744Z,2.85
2023-02-04T00:03:06.948Z,2.58
2023-02-04T00:05:35.443Z,2.90
2023-02-04T00:08:06.461Z,2.88
2023-02-04T00:10:37.252Z,2.88
2023-02-04T00:13:05.656Z,2.58
2023-02-04T00:15:34.003Z,2.75
2023-02-04T00:18:04.342Z,3.05
2023-02-04T00:20:34.182Z,2.70
2023-02-04T00:23:04.132Z,2.22
2023-02-04T00:25:33.826Z,2.88
2023-02-04T00:28:04.431Z,2.20
2023-02-04T00:30:33.397Z,2.97
2023-02-04T00:33:01.795Z,2.30
2023-02-04T00:35:30.176Z,3.67
2023-02-04T00:37:58.694Z,2.03
2023-02-04T00:40:27.058Z,2.45
2023-02-04T00:42:55.440Z,2.08
2023-02-04T00:45:25.404Z,2.88
2023-02-04T00:47:53.849Z,4.60
2023-02-04T00:50:22.198Z,2.65
2023-02-04T00:52:50.597Z,3.78
2023-02-04T00:55:19.025Z,4.70
2023-02-04T00:57:48.306Z,3.10
2023-02-04T01:00:19.119Z,2.72
2023-02-04T01:02:48.986Z,3.05
2023-02-04T01:05:17.359Z,3.20
2023-02-04T01:07:45.736Z,2.58
2023-02-04T01:10:16.313Z,2.38
2023-02-04T01:12:45.059Z,2.47
2023-02-04T01:15:13.551Z,2.72
2023-02-04T01:17:42.689Z,2.90
2023-02-04T01:20:13.575Z,2.30
2023-02-04T01:22:43.057Z,2.67
2023-02-04T01:25:11.452Z,2.25
2023-02-04T01:27:39.810Z,2.40
2023-02-04T01:30:09.565Z,2.60
2023-02-04T01:32:37.950Z,2.75
2023-02-04T01:35:07.595Z,2.75
2023-02-04T01:37:37.475Z,1.85
2023-02-04T01:40:07.314Z,3.10
2023-02-04T01:42:35.754Z,2.45
2023-02-04T01:45:06.438Z,2.20
2023-02-04T01:47:35.242Z,2.58
2023-02-04T01:50:04.127Z,2.45
2023-02-04T01:52:38.361Z,2.65
2023-02-04T01:55:12.657Z,2.47
2023-02-04T01:57:41.230Z,2.65
2023-02-04T02:00:15.867Z,2.65
2023-02-04T02:02:47.297Z,2.20
2023-02-04T02:05:21.322Z,2.22
2023-02-04T02:07:52.476Z,2.63
2023-02-04T02:10:21.474Z,2.78
2023-02-04T02:12:50.935Z,2.15
2023-02-04T02:15:20.206Z,1.90
2023-02-04T02:17:48.905Z,2.83
2023-02-04T02:20:19.484Z,2.28
2023-02-04T02:22:59.640Z,2.10
2023-02-04T02:25:29.457Z,3.13
2023-02-04T02:27:59.780Z,2.75
2023-02-04T02:30:30.246Z,2.40
2023-02-04T02:32:59.376Z,2.10
2023-02-04T02:35:27.981Z,2.42
2023-02-04T02:37:56.371Z,1.85
2023-02-04T02:40:25.047Z,1.70
2023-02-04T02:42:55.582Z,2.40
2023-02-04T02:45:27.054Z,2.28
2023-02-04T02:47:57.603Z,1.80
2023-02-04T02:50:28.064Z,2.10
2023-02-04T02:52:57.228Z,2.55
2023-02-04T02:55:28.013Z,2.28
2023-02-04T02:57:58.978Z,2.35
2023-02-04T03:00:29.962Z,2.13
2023-02-04T03:03:02.643Z,2.00
2023-02-04T03:05:34.081Z,1.88
2023-02-04T03:08:02.862Z,2.05
2023-02-04T03:10:31.597Z,3.20
2023-02-04T03:13:01.983Z,2.20
2023-02-04T03:15:30.658Z,1.95
2023-02-04T03:17:59.541Z,1.98
2023-02-04T03:20:31.274Z,2.10
2023-02-04T03:23:00.103Z,2.55
2023-02-04T03:25:29.409Z,2.22
2023-02-04T03:27:59.330Z,1.30
2023-02-04T03:30:29.777Z,0.60
2023-02-04T03:32:58.690Z,0.45
2023-02-04T03:35:27.149Z,0.47
2023-02-04T03:37:55.592Z,0.38
2023-02-04T03:40:23.917Z,0.30
2023-02-04T03:42:52.257Z,0.68
2023-02-04T03:45:20.757Z,0.40
2023-02-04T03:47:50.572Z,0.60
2023-02-04T03:50:19.044Z,0.40
2023-02-04T03:52:49.087Z,0.30
2023-02-04T03:55:17.539Z,0.47
2023-02-04T03:57:45.885Z,0.50
2023-02-04T04:00:15.476Z,0.50
2023-02-04T04:02:44.530Z,0.65
2023-02-04T04:05:14.418Z,0.43
2023-02-04T04:07:42.816Z,0.47
2023-02-04T04:10:11.558Z,0.40
2023-02-04T04:12:39.937Z,0.50
2023-02-04T04:15:08.936Z,0.40
2023-02-04T04:17:37.304Z,0.50
2023-02-04T04:20:06.796Z,0.60
2023-02-04T04:22:36.599Z,0.70
2023-02-04T04:25:05.261Z,0.73
2023-02-04T04:27:33.875Z,0.70
2023-02-04T04:30:02.463Z,0.70
2023-02-04T04:32:30.828Z,0.95
2023-02-04T04:34:59.217Z,0.70
2023-02-04T04:37:27.673Z,0.80
2023-02-04T04:39:57.422Z,0.98
2023-02-04T04:42:25.830Z,0.88
2023-02-04T04:44:54.116Z,1.17
2023-02-04T04:47:22.483Z,0.93
2023-02-04T04:49:50.893Z,0.80
2023-02-04T04:52:19.362Z,0.88
2023-02-04T04:54:47.643Z,0.65
2023-02-04T04:57:17.524Z,1.52
2023-02-04T04:59:45.917Z,1.30
2023-02-04T05:02:14.264Z,1.30
2023-02-04T05:04:42.745Z,1.55
2023-02-04T05:07:11.155Z,1.10
2023-02-04T05:09:39.468Z,0.98
2023-02-04T05:12:07.995Z,1.05
2023-02-04T05:14:37.690Z,0.80
2023-02-04T05:17:06.805Z,0.90
2023-02-04T05:19:35.171Z,1.05
2023-02-04T05:22:03.548Z,1.30
2023-02-04T05:24:31.821Z,1.40
2023-02-04T05:27:00.401Z,1.40
2023-02-04T05:29:28.806Z,1.40
2023-02-04T05:31:58.638Z,1.02
2023-02-04T05:34:27.082Z,1.23
2023-02-04T05:36:55.478Z,1.13
2023-02-04T05:39:23.875Z,1.10
2023-02-04T05:41:52.244Z,1.10
2023-02-04T05:44:20.656Z,1.40
2023-02-04T05:46:49.039Z,1.20
2023-02-04T05:49:18.839Z,1.10
2023-02-04T05:51:47.226Z,1.40
2023-02-04T05:54:19.591Z,1.40
2023-02-04T05:56:48.589Z,1.40
2023-02-04T05:59:16.919Z,1.30
2023-02-04T06:01:45.417Z,1.38
2023-02-04T06:04:15.626Z,1.60
2023-02-04T06:06:45.738Z,1.75
2023-02-04T06:09:14.297Z,1.27
2023-02-04T06:11:42.653Z,1.40
2023-02-04T06:14:11.036Z,1.50
2023-02-04T06:16:39.380Z,1.50
2023-02-04T06:19:07.812Z,1.45
2023-02-04T06:21:36.152Z,1.40
2023-02-04T06:24:06.437Z,1.42
2023-02-04T06:26:34.776Z,1.20
2023-02-04T06:29:03.233Z,1.70
2023-02-04T06:31:31.903Z,1.63
2023-02-04T06:34:00.367Z,1.50
2023-02-04T06:36:28.746Z,1.75
2023-02-04T06:38:57.593Z,1.50
2023-02-04T06:41:27.416Z,1.50
2023-02-04T06:43:55.750Z,1.40
2023-02-04T06:46:24.451Z,1.65
2023-02-04T06:48:52.868Z,1.20
2023-02-04T06:51:21.196Z,1.20
2023-02-04T06:53:49.623Z,1.00
2023-02-04T06:56:18.033Z,1.40
2023-02-04T06:58:47.880Z,1.00
2023-02-04T07:01:16.360Z,1.50
2023-02-04T07:03:44.789Z,1.40
2023-02-04T07:06:13.210Z,1.38
2023-02-04T07:08:41.588Z,1.33
2023-02-04T07:11:10.075Z,1.02
2023-02-04T07:13:38.454Z,1.20
2023-02-04T07:16:09.313Z,2.60
2023-02-04T07:18:37.780Z,1.70
2023-02-04T07:21:06.512Z,1.45
2023-02-04T07:23:34.831Z,1.13
2023-02-04T07:26:03.189Z,1.00
2023-02-04T07:28:31.695Z,0.88
2023-02-04T07:31:00.213Z,0.93
2023-02-04T07:33:30.367Z,0.90
2023-02-04T07:35:58.670Z,0.95
2023-02-04T07:38:27.143Z,1.00
2023-02-04T07:40:55.569Z,1.13
2023-02-04T07:43:24.600Z,0.90
2023-02-04T07:45:52.934Z,1.40
2023-02-04T07:48:21.426Z,1.95
2023-02-04T07:50:51.259Z,1.25
2023-02-04T07:53:19.595Z,1.10
2023-02-04T07:55:47.945Z,1.10
2023-02-04T07:58:16.498Z,1.20
2023-02-04T08:00:44.895Z,1.42
2023-02-04T08:03:13.204Z,2.00
2023-02-04T08:05:41.672Z,2.17
2023-02-04T08:08:11.377Z,1.40
2023-02-04T08:10:39.818Z,1.10
2023-02-04T08:13:08.256Z,1.00
2023-02-04T08:15:36.688Z,1.05
2023-02-04T08:18:05.873Z,1.30
2023-02-04T08:20:34.920Z,1.23
2023-02-04T08:23:03.420Z,1.35
2023-02-04T08:25:33.124Z,1.50
2023-02-04T08:28:01.591Z,0.93
2023-02-04T08:30:30.338Z,0.90
2023-02-04T08:32:59.164Z,0.70
2023-02-04T08:35:27.991Z,1.20
2023-02-04T08:37:56.471Z,1.80
2023-02-04T08:40:24.757Z,0.90
2023-02-04T08:42:54.626Z,0.50
2023-02-04T08:45:22.965Z,1.30
2023-02-04T08:47:51.284Z,1.25
2023-02-04T08:50:19.919Z,1.33
2023-02-04T08:52:48.285Z,1.35
2023-02-04T08:55:17.080Z,0.88
2023-02-04T08:57:45.437Z,1.00
2023-02-04T09:00:16.551Z,1.00
2023-02-04T09:02:45.047Z,1.20
2023-02-04T09:05:13.552Z,1.05
2023-02-04T09:07:41.840Z,1.27
2023-02-04T09:10:10.590Z,1.80
2023-02-04T09:12:39.005Z,1.40
2023-02-04T09:15:07.807Z,1.27
2023-02-04T09:17:37.813Z,1.08
2023-02-04T09:20:07.947Z,1.00
2023-02-04T09:22:37.936Z,2.55
2023-02-04T09:25:06.852Z,0.95
2023-02-04T09:27:35.228Z,1.00
2023-02-04T09:30:03.566Z,1.05
2023-02-04T09:32:32.081Z,1.10
2023-02-04T09:35:01.966Z,1.02
2023-02-04T09:37:30.398Z,0.90
2023-02-04T09:39:58.729Z,0.90
2023-02-04T09:42:28.209Z,0.80
2023-02-04T09:44:56.647Z,0.70
2023-02-04T09:47:26.808Z,0.88
2023-02-04T09:49:55.181Z,0.90
2023-02-04T09:52:25.242Z,0.90
2023-02-04T09:54:53.584Z,0.88
2023-02-04T09:57:22.615Z,1.30
2023-02-04T09:59:52.933Z,1.10
2023-02-04T10:02:26.510Z,1.38
2023-02-04T10:04:59.067Z,1.23
2023-02-04T10:07:32.482Z,1.10
2023-02-04T10:10:01.659Z,1.27
2023-02-04T10:12:32.607Z,1.02
2023-02-04T10:15:04.354Z,1.00
2023-02-04T10:17:33.604Z,0.82
2023-02-04T10:20:03.787Z,0.75
2023-02-04T10:22:34.333Z,7.82
2023-02-04T10:25:03.009Z,1.90
2023-02-04T10:27:31.395Z,1.30
2023-02-04T10:30:00.702Z,0.98
2023-02-04T10:32:31.598Z,1.35
2023-02-04T10:35:04.224Z,1.10
2023-02-04T10:37:34.670Z,0.80
2023-02-04T10:40:03.011Z,1.02
2023-02-04T10:42:32.634Z,1.20
2023-02-04T10:45:01.306Z,1.73
2023-02-04T10:47:31.967Z,1.20
2023-02-04T10:50:04.851Z,1.17
2023-02-04T10:52:39.589Z,0.68
2023-02-04T10:55:13.702Z,1.20
2023-02-04T10:57:43.718Z,1.48
2023-02-04T11:00:18.637Z,1.38
2023-02-04T11:02:53.826Z,2.70
2023-02-04T11:05:24.740Z,0.82
2023-02-04T11:07:54.628Z,0.95
2023-02-04T11:10:25.748Z,0.85
2023-02-04T11:13:05.871Z,0.70
2023-02-04T11:15:47.420Z,1.05
2023-02-04T11:18:30.259Z,0.70
2023-02-04T11:21:00.728Z,1.10
2023-02-04T11:23:38.170Z,0.60
2023-02-04T11:26:10.693Z,0.80
2023-02-04T11:28:52.482Z,0.50
2023-02-04T11:31:47.084Z,0.90
2023-02-04T11:34:32.735Z,0.95
2023-02-04T11:37:29.040Z,0.80
2023-02-04T11:40:02.966Z,1.00
2023-02-04T11:42:44.909Z,1.00
2023-02-04T11:45:17.344Z,1.15
2023-02-04T11:47:46.337Z,2.30
2023-02-04T11:50:19.206Z,0.93
2023-02-04T11:52:47.613Z,1.58
2023-02-04T11:55:19.376Z,1.42
2023-02-04T11:57:53.503Z,2.40
2023-02-04T12:00:26.225Z,1.25
2023-02-04T12:02:59.339Z,0.60
2023-02-04T12:05:39.718Z,0.50
2023-02-04T12:08:13.302Z,0.68
2023-02-04T12:10:51.332Z,0.70
2023-02-04T12:13:28.298Z,0.60
2023-02-04T12:16:01.999Z,0.77
2023-02-04T12:18:31.177Z,0.80
2023-02-04T12:21:00.799Z,1.70
2023-02-04T12:23:31.195Z,1.05
2023-02-04T12:26:01.315Z,4.32
2023-02-04T12:28:30.000Z,1.30
2023-02-04T12:30:58.954Z,4.65
2023-02-04T12:33:27.459Z,2.35
2023-02-04T12:35:56.035Z,0.70
2023-02-04T12:38:24.355Z,0.60
2023-02-04T12:40:52.785Z,0.65
2023-02-04T12:43:22.877Z,0.80
2023-02-04T12:45:51.324Z,1.88
2023-02-04T12:48:19.654Z,1.00
2023-02-04T12:50:48.079Z,0.80
2023-02-04T12:53:17.307Z,1.00
2023-02-04T12:55:47.098Z,1.00
2023-02-04T12:58:15.684Z,1.08
2023-02-04T13:00:46.334Z,1.50
2023-02-04T13:03:14.994Z,1.10
2023-02-04T13:05:43.499Z,0.90
2023-02-04T13:08:12.700Z,0.80
2023-02-04T13:10:41.650Z,0.80
2023-02-04T13:13:11.001Z,1.05
2023-02-04T13:15:39.708Z,1.00
2023-02-04T13:18:09.668Z,0.90
2023-02-04T13:20:39.126Z,0.55
2023-02-04T13:23:08.328Z,1.00
2023-02-04T13:25:38.129Z,1.10
2023-02-04T13:28:06.807Z,0.50
2023-02-04T13:30:35.387Z,0.77
2023-02-04T13:33:03.937Z,0.70
2023-02-04T13:35:34.200Z,0.70
2023-02-04T13:38:03.027Z,0.50
2023-02-04T13:40:31.937Z,0.73
2023-02-04T13:43:00.348Z,0.55
2023-02-04T13:45:29.034Z,0.80
2023-02-04T13:47:58.505Z,1.73
2023-02-04T13:50:26.920Z,4.38
2023-02-04T13:52:57.003Z,1.83
2023-02-04T13:55:25.399Z,0.68
2023-02-04T13:57:54.178Z,0.50
2023-02-04T14:00:23.828Z,0.55
2023-02-04T14:03:04.081Z,0.57
2023-02-04T14:05:33.448Z,0.52
2023-02-04T14:08:04.480Z,0.50
2023-02-04T14:10:33.240Z,0.80
2023-02-04T14:13:02.144Z,0.50
2023-02-04T14:15:30.979Z,2.75
2023-02-04T14:17:59.379Z,1.27
2023-02-04T14:20:27.857Z,1.25
2023-02-04T14:22:57.477Z,0.90
2023-02-04T14:25:27.422Z,1.40
2023-02-04T14:27:58.671Z,1.00
2023-02-04T14:30:30.454Z,1.00
2023-02-04T14:33:00.032Z,0.70
2023-02-04T14:35:28.625Z,0.80
2023-02-04T14:37:57.112Z,0.60
2023-02-04T14:40:27.278Z,0.90
2023-02-04T14:42:55.645Z,0.40
2023-02-04T14:45:24.705Z,0.55
2023-02-04T14:47:57.065Z,0.50
2023-02-04T14:50:27.284Z,0.82
2023-02-04T14:52:57.017Z,0.40
2023-02-04T14:55:27.328Z,0.35
2023-02-04T14:57:55.709Z,0.50
2023-02-04T15:00:25.908Z,1.35
2023-02-04T15:02:55.656Z,0.50
2023-02-04T15:05:24.015Z,0.68
2023-02-04T15:07:52.345Z,0.40
2023-02-04T15:10:21.421Z,0.60
2023-02-04T15:12:51.507Z,0.68
2023-02-04T15:15:20.024Z,0.50
2023-02-04T15:17:50.691Z,0.52
2023-02-04T15:20:20.085Z,0.70
2023-02-04T15:22:52.193Z,0.80
2023-02-04T15:25:20.737Z,0.70
2023-02-04T15:27:51.687Z,0.75
2023-02-04T15:30:20.278Z,0.50
2023-02-04T15:32:48.923Z,0.50
2023-02-04T15:35:18.407Z,0.88
2023-02-04T15:37:46.878Z,0.70
2023-02-04T15:40:16.418Z,0.52
2023-02-04T15:42:44.858Z,0.60
2023-02-04T15:45:15.474Z,0.50
2023-02-04T15:47:44.764Z,0.98
2023-02-04T15:50:15.389Z,1.13
2023-02-04T15:52:44.238Z,0.70
2023-02-04T15:55:12.599Z,1.05
2023-02-04T15:57:41.961Z,0.80
2023-02-04T16:00:11.400Z,0.52
2023-02-04T16:02:43.245Z,1.00
2023-02-04T16:05:11.712Z,0.90
2023-02-04T16:07:40.031Z,1.90
2023-02-04T16:10:09.219Z,0.82
2023-02-04T16:12:37.601Z,0.82
2023-02-04T16:15:06.452Z,0.70
2023-02-04T16:17:34.830Z,1.10
2023-02-04T16:20:04.986Z,1.00
2023-02-04T16:22:33.787Z,1.50
2023-02-04T16:25:02.171Z,1.92
2023-02-04T16:27:32.002Z,2.03
2023-02-04T16:30:00.536Z,2.67
2023-02-04T16:32:29.168Z,6.03
2023-02-04T16:34:59.711Z,4.20
2023-02-04T16:37:29.761Z,5.90
2023-02-04T16:39:58.216Z,5.55
2023-02-04T16:42:26.572Z,2.33
2023-02-04T16:44:54.917Z,1.67
2023-02-04T16:47:23.459Z,1.65
2023-02-04T16:49:52.042Z,1.70
2023-02-04T16:52:20.487Z,1.52
2023-02-04T16:54:50.296Z,1.40
2023-02-04T16:57:18.845Z,1.30
2023-02-04T16:59:47.276Z,1.95
2023-02-04T17:02:15.673Z,1.52
2023-02-04T17:04:43.952Z,1.15
2023-02-04T17:07:12.334Z,1.33
2023-02-04T17:09:40.672Z,2.00
2023-02-04T17:12:10.627Z,1.45
2023-02-04T17:14:41.242Z,1.88
2023-02-04T17:17:09.713Z,2.70
2023-02-04T17:19:38.040Z,4.47
2023-02-04T17:22:06.363Z,4.47
2023-02-04T17:24:36.601Z,11.38
2023-02-04T17:27:04.987Z,4.60
2023-02-04T17:29:34.958Z,5.88
2023-02-04T17:32:03.295Z,6.78
2023-02-04T17:34:31.720Z,16.02
2023-02-04T17:37:00.063Z,15.60
2023-02-04T17:39:28.496Z,11.82
2023-02-04T17:41:56.830Z,8.80
2023-02-04T17:44:27.094Z,11.85
2023-02-04T17:46:59.165Z,5.20
2023-02-04T17:49:27.942Z,6.63
2023-02-04T17:51:56.465Z,7.03
2023-02-04T17:54:25.248Z,5.55
2023-02-04T17:56:53.726Z,5.53
2023-02-04T17:59:22.206Z,7.55
2023-02-04T18:01:50.952Z,13.15
2023-02-04T18:04:21.201Z,6.15
2023-02-04T18:06:53.011Z,5.85
2023-02-04T18:09:21.490Z,15.63
2023-02-04T18:11:49.852Z,3.20
2023-02-04T18:14:22.277Z,2.70
2023-02-04T18:16:50.713Z,3.15
2023-02-04T18:19:22.274Z,3.42
2023-02-04T18:21:51.722Z,4.30
2023-02-04T18:24:24.058Z,5.30
2023-02-04T18:26:54.012Z,6.28
2023-02-04T18:29:34.121Z,6.25
2023-02-04T18:32:04.659Z,4.72
2023-02-04T18:34:38.734Z,2.22
2023-02-04T18:37:30.034Z,1.58
2023-02-04T18:40:17.802Z,1.30
2023-02-04T18:42:47.498Z,1.20
2023-02-04T18:45:24.172Z,3.88
2023-02-04T18:47:55.315Z,1.10
2023-02-04T18:50:29.924Z,1.35
2023-02-04T18:53:01.974Z,1.13
2023-02-04T18:55:34.946Z,1.15
2023-02-04T18:58:27.656Z,1.05
2023-02-04T19:00:59.851Z,1.20
2023-02-04T19:03:30.103Z,1.40
2023-02-04T19:06:02.011Z,2.15
2023-02-04T19:08:37.191Z,11.07
2023-02-04T19:11:18.367Z,7.30
2023-02-04T19:13:47.095Z,5.30
2023-02-04T19:16:23.535Z,4.07
2023-02-04T19:18:54.026Z,4.70
2023-02-04T19:21:30.076Z,4.60
2023-02-04T19:24:09.434Z,8.70
2023-02-04T19:26:41.471Z,27.13
2023-02-04T19:29:41.555Z,10.73
2023-02-04T19:32:28.650Z,4.95
2023-02-04T19:35:01.341Z,3.58
2023-02-04T19:37:40.034Z,4.57
2023-02-04T19:40:29.172Z,6.80
2023-02-04T19:43:04.213Z,5.35
2023-02-04T19:45:32.809Z,3.67
2023-02-04T19:48:03.411Z,4.00
2023-02-04T19:50:35.596Z,3.88
2023-02-04T19:53:14.397Z,4.15
2023-02-04T19:55:45.352Z,5.15
2023-02-04T19:58:20.192Z,4.88
2023-02-04T20:01:00.537Z,3.65
2023-02-04T20:03:42.843Z,4.38
2023-02-04T20:06:33.857Z,3.47
2023-02-04T20:09:08.196Z,4.60
2023-02-04T20:11:58.292Z,10.60
2023-02-04T20:14:42.893Z,9.85
2023-02-04T20:17:20.642Z,6.28
2023-02-04T20:19:49.659Z,4.65
2023-02-04T20:22:45.777Z,3.95
2023-02-04T20:25:38.621Z,2.92
2023-02-04T20:28:36.069Z,3.97
2023-02-04T20:31:23.841Z,4.65
2023-02-04T20:33:54.394Z,3.72
2023-02-04T20:36:38.549Z,6.60
2023-02-04T20:39:34.342Z,7.65
2023-02-04T20:42:40.411Z,7.13
2023-02-04T20:45:24.669Z,6.57
2023-02-04T20:47:55.493Z,5.20
2023-02-04T20:50:38.415Z,6.18
2023-02-04T20:53:23.646Z,5.97
2023-02-04T20:55:55.502Z,4.25
2023-02-04T20:58:28.184Z,3.95
2023-02-04T21:00:57.003Z,6.03
2023-02-04T21:03:29.036Z,6.53
2023-02-04T21:06:00.201Z,6.55
2023-02-04T21:08:38.295Z,4.40
2023-02-04T21:11:07.147Z,2.97
2023-02-04T21:13:37.686Z,4.90
2023-02-04T21:16:08.158Z,6.53
2023-02-04T21:18:37.379Z,8.25
2023-02-04T21:21:08.029Z,9.55
2023-02-04T21:23:36.896Z,9.90
2023-02-04T21:26:05.840Z,7.55
2023-02-04T21:28:34.771Z,8.73
2023-02-04T21:31:04.739Z,8.32
2023-02-04T21:33:33.345Z,8.40
2023-02-04T21:36:01.750Z,8.55
2023-02-04T21:38:30.024Z,6.82
2023-02-04T21:40:58.475Z,5.90
2023-02-04T21:43:26.946Z,5.03
2023-02-04T21:45:55.411Z,5.75
2023-02-04T21:48:25.128Z,4.93
2023-02-04T21:50:54.034Z,3.75
2023-02-04T21:53:22.440Z,3.53
2023-02-04T21:55:50.885Z,3.15
2023-02-04T21:58:19.199Z,4.60
2023-02-04T22:00:47.538Z,5.60
2023-02-04T22:03:17.556Z,5.07
2023-02-04T22:05:47.345Z,4.95
2023-02-04T22:08:15.759Z,4.80
2023-02-04T22:10:44.141Z,5.65
2023-02-04T22:13:29.616Z,5.13
2023-02-04T22:15:58.054Z,5.90
2023-02-04T22:18:26.478Z,5.20
2023-02-04T22:20:56.324Z,6.40
2023-02-04T22:23:24.711Z,6.05
2023-02-04T22:25:53.162Z,6.80
2023-02-04T22:28:21.671Z,6.70
2023-02-04T22:30:50.792Z,5.35
2023-02-04T22:33:20.160Z,5.65
2023-02-04T22:35:48.678Z,6.85
2023-02-04T22:38:20.615Z,5.97
2023-02-04T22:40:50.170Z,6.65
2023-02-04T22:43:18.677Z,5.35
2023-02-04T22:45:46.951Z,5.82
2023-02-04T22:48:15.405Z,5.10
2023-02-04T22:50:43.745Z,4.82
2023-02-04T22:53:12.075Z,4.10
2023-02-04T22:55:41.948Z,4.38
2023-02-04T22:58:10.307Z,4.50
2023-02-04T23:00:38.717Z,3.95
2023-02-04T23:03:07.150Z,4.10
2023-02-04T23:05:36.554Z,4.25
2023-02-04T23:08:05.082Z,3.70
2023-02-04T23:10:33.592Z,3.67
2023-02-04T23:13:03.480Z,3.38
2023-02-04T23:15:32.143Z,3.38
2023-02-04T23:18:00.722Z,3.47
2023-02-04T23:20:29.416Z,3.70
2023-02-04T23:22:57.992Z,4.63
2023-02-04T23:25:26.340Z,4.05
2023-02-04T23:27:54.838Z,4.20
2023-02-04T23:30:24.812Z,4.53
2023-02-04T23:32:53.292Z,4.50
2023-02-04T23:35:21.588Z,5.05
2023-02-04T23:37:50.090Z,4.60
2023-02-04T23:40:18.738Z,4.22
2023-02-04T23:42:47.246Z,6.57
2023-02-04T23:45:15.762Z,8.20
2023-02-04T23:47:45.635Z,6.30
2023-02-04T23:50:14.129Z,6.60
2023-02-04T23:52:43.159Z,4.55
2023-02-04T23:55:11.876Z,4.53
2023-02-04T23:57:40.529Z,4.85
